createdAt,value
2022-10-07T00:01:04.834Z,13.94
2022-10-07T00:03:32.666Z,13.95
2022-10-07T00:06:14.890Z,13.94
2022-10-07T00:08:45.494Z,13.87
2022-10-07T00:11:21.559Z,13.85
2022-10-07T00:13:52.952Z,13.85
2022-10-07T00:16:26.337Z,13.85
2022-10-07T00:18:58.425Z,13.84
2022-10-07T00:21:29.462Z,13.82
2022-10-07T00:23:58.481Z,13.86
2022-10-07T00:26:28.539Z,13.88
2022-10-07T00:28:57.035Z,13.82
2022-10-07T00:31:27.690Z,13.80
2022-10-07T00:33:56.615Z,13.75
2022-10-07T00:36:30.061Z,13.79
2022-10-07T00:39:02.088Z,13.79
2022-10-07T00:41:38.642Z,13.73
2022-10-07T00:44:44.183Z,13.69
2022-10-07T00:47:23.385Z,13.68
2022-10-07T00:50:02.229Z,13.67
2022-10-07T00:52:33.753Z,13.71
2022-10-07T00:55:05.323Z,13.75
2022-10-07T00:57:34.275Z,13.68
2022-10-07T01:00:02.652Z,13.63
2022-10-07T01:02:31.366Z,13.60
2022-10-07T01:05:01.782Z,13.60
2022-10-07T01:07:30.434Z,13.57
2022-10-07T01:09:59.707Z,13.56
2022-10-07T01:12:32.144Z,13.58
2022-10-07T01:15:24.949Z,13.57
2022-10-07T01:18:08.868Z,13.62
2022-10-07T01:20:45.208Z,13.63
2022-10-07T01:23:36.752Z,13.61
2022-10-07T01:26:14.586Z,13.55
2022-10-07T01:28:58.193Z,13.56
2022-10-07T01:31:35.214Z,13.56
2022-10-07T01:34:06.378Z,13.58
2022-10-07T01:36:37.122Z,13.53
2022-10-07T01:39:11.435Z,13.52
2022-10-07T01:41:40.273Z,13.51
2022-10-07T01:44:12.041Z,13.51
2022-10-07T01:46:39.721Z,13.54
2022-10-07T01:49:10.708Z,13.53
2022-10-07T01:51:58.168Z,13.53
2022-10-07T01:54:38.946Z,13.54
2022-10-07T01:57:38.296Z,13.48
2022-10-07T02:00:11.458Z,13.45
2022-10-07T02:02:42.485Z,13.48
2022-10-07T02:05:27.340Z,13.45
2022-10-07T02:08:16.513Z,13.46
2022-10-07T02:11:01.606Z,13.46
2022-10-07T02:13:44.793Z,13.42
2022-10-07T02:16:29.571Z,13.41
2022-10-07T02:19:01.960Z,13.37
2022-10-07T02:21:36.468Z,13.36
2022-10-07T02:24:05.758Z,13.33
2022-10-07T02:26:35.693Z,13.33
2022-10-07T02:29:07.798Z,13.34
2022-10-07T02:31:38.040Z,13.33
2022-10-07T02:34:07.989Z,13.29
2022-10-07T02:36:47.213Z,13.30
2022-10-07T02:39:15.131Z,13.24
2022-10-07T02:41:51.052Z,13.24
2022-10-07T02:44:33.231Z,13.21
2022-10-07T02:47:08.935Z,13.21
2022-10-07T02:49:40.389Z,13.16
2022-10-07T02:52:12.001Z,13.15
2022-10-07T02:54:46.340Z,13.10
2022-10-07T02:57:18.041Z,13.10
2022-10-07T02:59:49.032Z,13.07
2022-10-07T03:02:30.389Z,13.00
2022-10-07T03:04:59.035Z,13.04
2022-10-07T03:07:28.722Z,12.95
2022-10-07T03:09:57.357Z,12.97
2022-10-07T03:12:25.017Z,12.88
2022-10-07T03:14:54.146Z,12.86
2022-10-07T03:17:22.483Z,12.81
2022-10-07T03:19:50.625Z,12.77
2022-10-07T03:22:18.185Z,12.74
2022-10-07T03:24:45.890Z,12.74
2022-10-07T03:27:15.235Z,12.72
2022-10-07T03:29:43.181Z,12.72
2022-10-07T03:32:11.603Z,12.73
2022-10-07T03:34:39.098Z,12.68
2022-10-07T03:37:07.921Z,12.68
2022-10-07T03:39:35.984Z,12.65
2022-10-07T03:42:03.513Z,12.56
2022-10-07T03:44:34.093Z,12.55
2022-10-07T03:47:02.154Z,12.50
2022-10-07T03:49:30.976Z,12.50
2022-10-07T03:52:00.217Z,12.44
2022-10-07T03:54:28.902Z,12.40
2022-10-07T03:56:57.899Z,12.37
2022-10-07T03:59:26.440Z,12.31
2022-10-07T04:01:54.991Z,12.29
2022-10-07T04:04:23.882Z,12.23
2022-10-07T04:06:52.034Z,12.19
2022-10-07T04:09:20.464Z,12.25
2022-10-07T04:11:50.570Z,12.21
2022-10-07T04:14:19.381Z,12.21
2022-10-07T04:16:46.889Z,12.19
2022-10-07T04:19:14.758Z,12.18
2022-10-07T04:21:44.499Z,12.25
2022-10-07T04:24:12.333Z,12.29
2022-10-07T04:26:40.032Z,12.24
2022-10-07T04:29:07.620Z,12.23
2022-10-07T04:31:36.075Z,12.26
2022-10-07T04:34:06.943Z,12.30
2022-10-07T04:36:39.032Z,12.33
2022-10-07T04:39:13.600Z,12.37
2022-10-07T04:41:51.619Z,12.42
2022-10-07T04:44:23.108Z,12.42
2022-10-07T04:46:56.936Z,12.45
2022-10-07T04:49:27.543Z,12.50
2022-10-07T04:51:56.842Z,12.46
2022-10-07T04:54:32.037Z,12.51
2022-10-07T04:57:00.196Z,12.57
2022-10-07T04:59:30.204Z,12.58
2022-10-07T05:01:58.926Z,12.60
2022-10-07T05:04:27.889Z,12.59
2022-10-07T05:06:57.011Z,12.59
2022-10-07T05:09:25.481Z,12.59
2022-10-07T05:11:56.581Z,12.63
2022-10-07T05:14:26.071Z,12.60
2022-10-07T05:16:55.979Z,12.54
2022-10-07T05:19:28.936Z,12.50
2022-10-07T05:21:56.744Z,12.52
2022-10-07T05:24:26.139Z,12.52
2022-10-07T05:26:54.617Z,12.47
2022-10-07T05:29:22.657Z,12.54
2022-10-07T05:31:52.753Z,12.55
2022-10-07T05:34:24.252Z,12.56
2022-10-07T05:36:53.636Z,12.62
2022-10-07T05:39:21.188Z,12.54
2022-10-07T05:41:55.742Z,12.57
2022-10-07T05:44:29.659Z,12.64
2022-10-07T05:46:59.020Z,12.72
2022-10-07T05:49:27.923Z,12.72
2022-10-07T05:51:56.368Z,12.81
2022-10-07T05:54:24.652Z,12.81
2022-10-07T05:56:54.078Z,12.85
2022-10-07T05:59:22.353Z,12.93
2022-10-07T06:01:50.835Z,12.88
2022-10-07T06:04:23.715Z,12.79
2022-10-07T06:06:53.709Z,12.80
2022-10-07T06:09:42.933Z,12.83
2022-10-07T06:12:34.491Z,12.99
2022-10-07T06:15:07.306Z,12.97
2022-10-07T06:17:36.035Z,13.02
2022-10-07T06:20:07.681Z,13.04
2022-10-07T06:22:35.948Z,13.06
2022-10-07T06:25:04.076Z,13.07
2022-10-07T06:27:35.280Z,13.09
2022-10-07T06:30:05.144Z,13.19
2022-10-07T06:32:32.939Z,13.19
2022-10-07T06:35:01.597Z,13.22
2022-10-07T06:37:32.875Z,13.19
2022-10-07T06:40:01.344Z,13.19
2022-10-07T06:42:32.212Z,13.15
2022-10-07T06:45:19.740Z,13.19
2022-10-07T06:47:49.986Z,13.25
2022-10-07T06:50:17.943Z,13.35
2022-10-07T06:52:45.502Z,13.47
2022-10-07T06:55:13.616Z,13.46
2022-10-07T06:57:45.794Z,13.48
2022-10-07T07:00:24.103Z,13.47
2022-10-07T07:02:51.908Z,13.47
2022-10-07T07:05:19.557Z,13.54
2022-10-07T07:07:49.656Z,13.67
2022-10-07T07:10:17.837Z,13.68
2022-10-07T07:12:54.042Z,13.82
2022-10-07T07:15:22.713Z,13.98
2022-10-07T07:17:50.716Z,14.02
2022-10-07T07:20:19.055Z,14.06
2022-10-07T07:22:47.508Z,14.12
2022-10-07T07:25:15.272Z,14.17
2022-10-07T07:27:46.797Z,14.26
2022-10-07T07:30:15.210Z,14.35
2022-10-07T07:32:45.895Z,14.43
2022-10-07T07:35:14.199Z,14.46
2022-10-07T07:37:42.776Z,14.55
2022-10-07T07:40:10.780Z,14.63
2022-10-07T07:42:39.149Z,14.74
2022-10-07T07:45:08.157Z,14.88
2022-10-07T07:47:35.876Z,14.97
2022-10-07T07:50:05.124Z,15.08
2022-10-07T07:52:34.977Z,15.21
2022-10-07T07:55:04.388Z,15.28
2022-10-07T07:57:33.204Z,15.32
2022-10-07T08:00:07.601Z,15.43
2022-10-07T08:02:56.155Z,15.60
2022-10-07T08:05:25.170Z,15.68
2022-10-07T08:07:56.494Z,15.75
2022-10-07T08:10:26.120Z,15.93
2022-10-07T08:12:55.760Z,16.02
2022-10-07T08:15:26.194Z,16.10
2022-10-07T08:17:56.237Z,16.19
2022-10-07T08:20:23.836Z,16.31
2022-10-07T08:22:56.828Z,16.46
2022-10-07T08:25:28.332Z,16.57
2022-10-07T08:27:58.777Z,16.67
2022-10-07T08:30:26.949Z,16.86
2022-10-07T08:32:59.042Z,17.03
2022-10-07T08:35:28.688Z,17.10
2022-10-07T08:37:56.814Z,17.07
2022-10-07T08:40:26.484Z,17.18
2022-10-07T08:42:54.722Z,17.17
2022-10-07T08:45:33.437Z,17.20
2022-10-07T08:48:07.590Z,17.31
2022-10-07T08:51:02.486Z,17.35
2022-10-07T08:53:34.162Z,17.35
2022-10-07T08:56:12.870Z,17.33
2022-10-07T08:58:55.714Z,17.41
2022-10-07T09:01:48.012Z,17.42
2022-10-07T09:04:45.324Z,17.42
2022-10-07T09:07:25.676Z,17.59
2022-10-07T09:09:55.615Z,17.79
2022-10-07T09:12:54.166Z,17.92
2022-10-07T09:15:38.119Z,17.87
2022-10-07T09:18:23.452Z,17.83
2022-10-07T09:20:56.269Z,17.98
2022-10-07T09:23:29.988Z,18.04
2022-10-07T09:25:57.606Z,18.14
2022-10-07T09:28:29.777Z,18.26
2022-10-07T09:31:03.060Z,18.34
2022-10-07T09:33:31.103Z,18.42
2022-10-07T09:36:06.616Z,18.20
2022-10-07T09:38:40.005Z,18.19
2022-10-07T09:41:16.288Z,18.22
2022-10-07T09:43:49.533Z,18.29
2022-10-07T09:46:39.457Z,18.23
2022-10-07T09:49:07.632Z,18.35
2022-10-07T09:51:35.648Z,18.45
2022-10-07T09:54:06.325Z,18.52
2022-10-07T09:56:38.262Z,18.63
2022-10-07T09:59:29.698Z,18.63
2022-10-07T10:01:58.759Z,18.71
2022-10-07T10:04:37.860Z,18.71
2022-10-07T10:07:25.743Z,18.63
2022-10-07T10:10:04.796Z,18.71
2022-10-07T10:12:45.320Z,18.84
2022-10-07T10:15:25.497Z,18.86
2022-10-07T10:17:56.926Z,18.97
2022-10-07T10:20:24.357Z,18.97
2022-10-07T10:22:52.399Z,18.81
2022-10-07T10:26:02.544Z,18.83
2022-10-07T10:28:45.008Z,18.92
2022-10-07T10:31:36.180Z,18.76
2022-10-07T10:34:48.385Z,18.85
2022-10-07T10:37:41.886Z,18.92
2022-10-07T10:40:24.184Z,18.92
2022-10-07T10:43:20.305Z,19.20
2022-10-07T10:46:08.979Z,19.15
2022-10-07T10:48:50.214Z,18.81
2022-10-07T10:51:17.833Z,18.75
2022-10-07T10:54:05.077Z,18.82
2022-10-07T10:56:38.326Z,19.06
2022-10-07T10:59:33.965Z,19.29
2022-10-07T11:02:31.747Z,18.99
2022-10-07T11:05:12.722Z,18.96
2022-10-07T11:07:47.910Z,19.19
2022-10-07T11:10:26.814Z,19.49
2022-10-07T11:12:59.149Z,19.55
2022-10-07T11:15:35.814Z,19.36
2022-10-07T11:18:08.761Z,19.17
2022-10-07T11:20:44.998Z,19.04
2022-10-07T11:23:18.473Z,18.91
2022-10-07T11:26:17.700Z,18.94
2022-10-07T11:28:47.117Z,19.10
2022-10-07T11:31:41.008Z,19.35
2022-10-07T11:34:15.373Z,19.60
2022-10-07T11:37:03.332Z,19.64
2022-10-07T11:39:32.387Z,19.41
2022-10-07T11:42:22.271Z,19.53
2022-10-07T11:44:52.636Z,19.52
2022-10-07T11:47:28.187Z,19.33
2022-10-07T11:50:10.589Z,19.13
2022-10-07T11:52:49.276Z,19.21
2022-10-07T11:55:35.277Z,19.37
2022-10-07T11:58:04.384Z,19.55
2022-10-07T12:00:36.722Z,19.55
2022-10-07T12:03:33.761Z,19.58
2022-10-07T12:06:11.838Z,19.66
2022-10-07T12:08:42.148Z,19.68
2022-10-07T12:11:12.630Z,19.61
2022-10-07T12:13:45.261Z,19.57
2022-10-07T12:16:31.456Z,19.58
2022-10-07T12:19:07.991Z,19.68
2022-10-07T12:22:02.828Z,19.71
2022-10-07T12:24:31.762Z,19.71
2022-10-07T12:27:10.190Z,19.72
2022-10-07T12:29:58.466Z,19.70
2022-10-07T12:32:53.429Z,19.46
2022-10-07T12:35:40.165Z,19.28
2022-10-07T12:38:10.478Z,19.40
2022-10-07T12:40:41.554Z,19.53
2022-10-07T12:43:22.247Z,19.61
2022-10-07T12:45:50.474Z,19.63
2022-10-07T12:48:22.097Z,19.62
2022-10-07T12:50:53.674Z,19.56
2022-10-07T12:53:24.775Z,19.58
2022-10-07T12:55:55.963Z,19.51
2022-10-07T12:58:42.165Z,19.64
2022-10-07T13:01:15.560Z,19.78
2022-10-07T13:04:14.533Z,19.96
2022-10-07T13:06:55.635Z,20.02
2022-10-07T13:09:40.718Z,19.99
2022-10-07T13:12:34.732Z,19.78
2022-10-07T13:15:35.385Z,19.70
2022-10-07T13:18:13.222Z,19.66
2022-10-07T13:20:59.784Z,19.60
2022-10-07T13:23:30.679Z,19.54
2022-10-07T13:26:01.540Z,19.68
2022-10-07T13:28:49.354Z,19.62
2022-10-07T13:31:21.630Z,19.64
2022-10-07T13:33:51.412Z,19.70
2022-10-07T13:36:28.106Z,19.60
2022-10-07T13:39:16.288Z,19.53
2022-10-07T13:41:47.394Z,19.58
2022-10-07T13:44:19.988Z,19.59
2022-10-07T13:47:01.333Z,19.53
2022-10-07T13:49:34.713Z,19.54
2022-10-07T13:52:05.357Z,19.51
2022-10-07T13:54:34.135Z,19.52
2022-10-07T13:57:02.499Z,19.54
2022-10-07T13:59:36.645Z,19.45
2022-10-07T14:02:04.739Z,19.43
2022-10-07T14:04:34.400Z,19.45
2022-10-07T14:07:19.468Z,19.34
2022-10-07T14:09:49.319Z,19.34
2022-10-07T14:12:30.176Z,19.27
2022-10-07T14:15:13.041Z,19.19
2022-10-07T14:17:49.345Z,19.08
2022-10-07T14:20:19.579Z,18.93
2022-10-07T14:22:50.438Z,18.91
2022-10-07T14:25:20.082Z,18.94
2022-10-07T14:27:47.535Z,18.95
2022-10-07T14:30:55.507Z,18.92
2022-10-07T14:34:00.180Z,18.85
2022-10-07T14:36:27.751Z,18.79
2022-10-07T14:38:58.290Z,18.70
2022-10-07T14:41:30.491Z,18.66
2022-10-07T14:44:00.323Z,18.63
2022-10-07T14:46:29.218Z,18.53
2022-10-07T14:48:56.809Z,18.45
2022-10-07T14:51:28.937Z,18.43
2022-10-07T14:54:02.246Z,18.40
2022-10-07T14:56:33.777Z,18.32
2022-10-07T14:59:01.684Z,18.27
2022-10-07T15:01:29.904Z,18.19
2022-10-07T15:03:58.374Z,18.12
2022-10-07T15:06:25.956Z,18.02
2022-10-07T15:08:53.745Z,17.98
2022-10-07T15:11:23.808Z,17.95
2022-10-07T15:13:52.571Z,17.90
2022-10-07T15:16:23.079Z,17.83
2022-10-07T15:18:53.182Z,17.75
2022-10-07T15:21:22.416Z,17.70
2022-10-07T15:23:54.171Z,17.66
2022-10-07T15:26:24.620Z,17.62
2022-10-07T15:28:55.253Z,17.62
2022-10-07T15:31:26.162Z,17.55
2022-10-07T15:33:57.255Z,17.50
2022-10-07T15:36:29.323Z,17.46
2022-10-07T15:39:02.199Z,17.45
2022-10-07T15:41:33.344Z,17.35
2022-10-07T15:44:03.878Z,17.33
2022-10-07T15:46:32.311Z,17.33
2022-10-07T15:49:00.122Z,17.25
2022-10-07T15:51:29.496Z,17.23
2022-10-07T15:53:57.262Z,17.21
2022-10-07T15:56:28.076Z,17.20
2022-10-07T15:58:55.899Z,17.16
2022-10-07T16:01:26.482Z,17.13
2022-10-07T16:03:54.603Z,17.08
2022-10-07T16:06:24.805Z,17.01
2022-10-07T16:08:55.824Z,17.00
2022-10-07T16:11:24.175Z,17.00
2022-10-07T16:13:52.817Z,16.95
2022-10-07T16:16:22.863Z,16.89
2022-10-07T16:18:52.007Z,16.85
2022-10-07T16:21:42.915Z,16.77
2022-10-07T16:24:15.323Z,16.67
2022-10-07T16:26:47.814Z,16.57
2022-10-07T16:29:39.597Z,16.50
2022-10-07T16:32:11.178Z,16.49
2022-10-07T16:34:43.623Z,16.52
2022-10-07T16:37:12.575Z,16.52
2022-10-07T16:39:40.614Z,16.53
2022-10-07T16:42:10.609Z,16.60
2022-10-07T16:44:38.891Z,16.55
2022-10-07T16:47:06.642Z,16.51
2022-10-07T16:49:36.520Z,16.45
2022-10-07T16:52:04.609Z,16.33
2022-10-07T16:54:35.511Z,16.29
2022-10-07T16:57:03.204Z,16.24
2022-10-07T16:59:31.502Z,16.16
2022-10-07T17:02:02.509Z,16.06
2022-10-07T17:04:30.334Z,16.00
2022-10-07T17:06:58.458Z,15.97
2022-10-07T17:09:26.580Z,15.86
2022-10-07T17:11:54.133Z,15.78
2022-10-07T17:14:23.015Z,15.80
2022-10-07T17:16:57.695Z,15.78
2022-10-07T17:19:28.746Z,15.77
2022-10-07T17:21:59.297Z,15.75
2022-10-07T17:24:27.296Z,15.73
2022-10-07T17:26:55.232Z,15.72
2022-10-07T17:29:26.147Z,15.69
2022-10-07T17:31:54.284Z,15.69
2022-10-07T17:34:24.264Z,15.72
2022-10-07T17:36:52.062Z,15.70
2022-10-07T17:39:19.819Z,15.68
2022-10-07T17:41:47.791Z,15.67
2022-10-07T17:44:15.627Z,15.63
2022-10-07T17:46:43.393Z,15.58
2022-10-07T17:49:13.400Z,15.58
2022-10-07T17:51:43.306Z,15.56
2022-10-07T17:54:12.843Z,15.59
2022-10-07T17:56:40.366Z,15.56
2022-10-07T17:59:08.148Z,15.50
2022-10-07T18:01:36.943Z,15.52
2022-10-07T18:04:07.303Z,15.47
2022-10-07T18:06:38.138Z,15.45
2022-10-07T18:09:06.954Z,15.43
2022-10-07T18:11:55.911Z,15.36
2022-10-07T18:14:42.155Z,15.33
2022-10-07T18:17:10.728Z,15.31
2022-10-07T18:19:41.972Z,15.28
2022-10-07T18:22:10.145Z,15.28
2022-10-07T18:24:39.323Z,15.21
2022-10-07T18:27:06.841Z,15.21
2022-10-07T18:29:38.206Z,15.21
2022-10-07T18:32:07.321Z,15.19
2022-10-07T18:34:34.952Z,15.17
2022-10-07T18:37:02.800Z,15.11
2022-10-07T18:39:30.477Z,15.11
2022-10-07T18:41:58.361Z,15.08
2022-10-07T18:44:26.700Z,15.01
2022-10-07T18:46:54.233Z,14.94
2022-10-07T18:49:25.212Z,14.85
2022-10-07T18:51:53.103Z,14.83
2022-10-07T18:54:21.249Z,14.77
2022-10-07T18:56:50.547Z,14.75
2022-10-07T18:59:19.141Z,14.76
2022-10-07T19:01:50.434Z,14.70
2022-10-07T19:04:19.133Z,14.64
2022-10-07T19:06:47.404Z,14.62
2022-10-07T19:09:20.445Z,14.56
2022-10-07T19:11:49.214Z,14.53
2022-10-07T19:14:17.354Z,14.48
2022-10-07T19:16:51.423Z,14.45
2022-10-07T19:19:23.361Z,14.43
2022-10-07T19:21:55.311Z,14.40
2022-10-07T19:24:45.517Z,14.44
2022-10-07T19:27:13.280Z,14.37
2022-10-07T19:29:41.117Z,14.37
2022-10-07T19:32:09.104Z,14.35
2022-10-07T19:34:37.213Z,14.30
2022-10-07T19:37:04.720Z,14.26
2022-10-07T19:39:32.480Z,14.27
2022-10-07T19:42:00.133Z,14.18
2022-10-07T19:44:27.804Z,14.13
2022-10-07T19:46:55.378Z,14.10
2022-10-07T19:49:23.227Z,14.11
2022-10-07T19:51:50.687Z,14.10
2022-10-07T19:54:20.113Z,14.09
2022-10-07T19:56:48.100Z,13.99
2022-10-07T19:59:15.667Z,14.00
2022-10-07T20:01:45.371Z,13.94
2022-10-07T20:04:15.893Z,13.97
2022-10-07T20:06:44.431Z,13.94
2022-10-07T20:09:15.292Z,13.91
2022-10-07T20:11:52.057Z,13.92
2022-10-07T20:14:19.650Z,13.90
2022-10-07T20:16:47.265Z,13.86
2022-10-07T20:19:18.702Z,13.83
2022-10-07T20:21:47.513Z,13.76
2022-10-07T20:24:16.593Z,13.74
2022-10-07T20:26:45.115Z,13.71
2022-10-07T20:29:15.352Z,13.68
2022-10-07T20:31:43.864Z,13.65
2022-10-07T20:34:18.867Z,13.62
2022-10-07T20:36:46.505Z,13.56
2022-10-07T20:39:35.695Z,13.57
2022-10-07T20:42:21.810Z,13.57
2022-10-07T20:44:50.402Z,13.57
2022-10-07T20:47:21.045Z,13.52
2022-10-07T20:49:50.833Z,13.50
2022-10-07T20:52:21.893Z,13.47
2022-10-07T20:54:51.259Z,13.39
2022-10-07T20:57:24.026Z,13.38
2022-10-07T20:59:51.899Z,13.42
2022-10-07T21:02:22.088Z,13.39
2022-10-07T21:04:50.832Z,13.31
2022-10-07T21:07:18.959Z,13.33
2022-10-07T21:09:48.221Z,13.25
2022-10-07T21:12:17.715Z,13.22
2022-10-07T21:14:48.594Z,13.21
2022-10-07T21:17:17.824Z,13.18
2022-10-07T21:19:45.795Z,13.21
2022-10-07T21:22:13.283Z,13.22
2022-10-07T21:24:42.094Z,13.15
2022-10-07T21:27:09.796Z,13.12
2022-10-07T21:29:40.669Z,12.97
2022-10-07T21:32:09.896Z,12.99
2022-10-07T21:34:38.296Z,12.97
2022-10-07T21:37:05.904Z,12.97
2022-10-07T21:39:33.763Z,13.00
2022-10-07T21:42:02.167Z,12.93
2022-10-07T21:44:33.421Z,12.89
2022-10-07T21:47:01.215Z,12.91
2022-10-07T21:49:28.702Z,12.88
2022-10-07T21:51:56.419Z,12.84
2022-10-07T21:54:26.255Z,12.78
2022-10-07T21:56:54.249Z,12.74
2022-10-07T21:59:21.948Z,12.73
2022-10-07T22:01:49.617Z,12.77
2022-10-07T22:04:18.670Z,12.74
2022-10-07T22:07:05.565Z,12.72
2022-10-07T22:09:33.530Z,12.60
2022-10-07T22:12:01.377Z,12.52
2022-10-07T22:14:29.264Z,12.48
2022-10-07T22:16:58.238Z,12.47
2022-10-07T22:19:25.751Z,12.42
2022-10-07T22:21:53.964Z,12.33
2022-10-07T22:24:21.607Z,12.36
2022-10-07T22:26:51.181Z,12.33
2022-10-07T22:29:19.988Z,12.31
2022-10-07T22:31:47.826Z,12.31
2022-10-07T22:34:33.791Z,12.23
2022-10-07T22:37:01.671Z,12.27
2022-10-07T22:39:29.702Z,12.30
2022-10-07T22:41:58.569Z,12.27
2022-10-07T22:44:28.218Z,12.26
2022-10-07T22:46:56.165Z,12.24
2022-10-07T22:49:29.512Z,12.29
2022-10-07T22:51:59.979Z,12.25
2022-10-07T22:54:28.417Z,12.19
2022-10-07T22:57:00.740Z,12.20
2022-10-07T22:59:28.295Z,12.18
2022-10-07T23:01:55.746Z,12.08
2022-10-07T23:04:23.248Z,12.10
2022-10-07T23:06:50.895Z,12.09
2022-10-07T23:09:18.728Z,12.04
2022-10-07T23:11:46.219Z,12.07
2022-10-07T23:14:15.179Z,12.04
2022-10-07T23:16:44.339Z,12.05
2022-10-07T23:19:11.991Z,12.02
2022-10-07T23:21:39.504Z,12.05
2022-10-07T23:24:11.024Z,12.01
2022-10-07T23:26:40.079Z,11.96
2022-10-07T23:29:08.186Z,11.94
2022-10-07T23:31:39.066Z,11.97
2022-10-07T23:34:06.723Z,11.95
2022-10-07T23:36:34.985Z,11.93
2022-10-07T23:39:02.596Z,11.84
2022-10-07T23:41:31.111Z,11.86
2022-10-07T23:44:02.027Z,11.83
2022-10-07T23:46:36.496Z,11.81
2022-10-07T23:49:04.865Z,11.84
2022-10-07T23:51:33.256Z,11.81
2022-10-07T23:54:02.611Z,11.81
2022-10-07T23:56:31.271Z,11.79
2022-10-07T23:58:59.157Z,11.79
